createdAt,value
2023-05-05T00:00:15.907Z,84.39
2023-05-05T00:02:42.881Z,84.71
2023-05-05T00:05:11.306Z,85.00
2023-05-05T00:07:37.894Z,86.58
2023-05-05T00:10:07.468Z,85.74
2023-05-05T00:12:34.426Z,85.34
2023-05-05T00:15:01.199Z,86.04
2023-05-05T00:17:27.941Z,87.19
2023-05-05T00:19:54.415Z,88.42
2023-05-05T00:22:21.029Z,89.85
2023-05-05T00:24:51.564Z,90.64
2023-05-05T00:27:18.077Z,91.00
2023-05-05T00:29:44.750Z,91.75
2023-05-05T00:32:13.086Z,92.33
2023-05-05T00:34:39.551Z,90.54
2023-05-05T00:37:06.237Z,90.13
2023-05-05T00:39:33.463Z,89.88
2023-05-05T00:41:59.938Z,90.91
2023-05-05T00:44:38.651Z,91.16
2023-05-05T00:47:05.707Z,91.10
2023-05-05T00:49:33.702Z,91.72
2023-05-05T00:52:00.659Z,91.93
2023-05-05T00:54:27.449Z,90.84
2023-05-05T00:56:54.180Z,90.21
2023-05-05T00:59:22.745Z,91.21
2023-05-05T01:01:50.730Z,90.06
2023-05-05T01:04:20.212Z,89.74
2023-05-05T01:07:04.524Z,90.32
2023-05-05T01:09:43.953Z,90.08
2023-05-05T01:12:25.960Z,91.04
2023-05-05T01:15:12.059Z,91.25
2023-05-05T01:17:45.776Z,92.03
2023-05-05T01:20:20.929Z,90.77
2023-05-05T01:22:53.790Z,92.31
2023-05-05T01:25:57.719Z,92.98
2023-05-05T01:28:29.424Z,92.37
2023-05-05T01:31:33.585Z,93.93
2023-05-05T01:34:08.412Z,92.94
2023-05-05T01:36:46.966Z,94.60
2023-05-05T01:39:18.284Z,94.92
2023-05-05T01:41:51.223Z,95.56
2023-05-05T01:44:21.711Z,95.85
2023-05-05T01:46:49.848Z,95.72
2023-05-05T01:49:16.635Z,95.32
2023-05-05T01:51:46.116Z,95.50
2023-05-05T01:54:13.966Z,97.01
2023-05-05T01:56:44.796Z,98.39
2023-05-05T01:59:14.349Z,98.14
2023-05-05T02:01:44.612Z,99.31
2023-05-05T02:04:14.486Z,100.00
2023-05-05T02:06:42.812Z,100.00
2023-05-05T02:09:12.960Z,100.00
2023-05-05T02:11:40.649Z,100.00
2023-05-05T02:14:09.426Z,100.00
2023-05-05T02:16:37.992Z,100.00
2023-05-05T02:19:05.800Z,100.00
2023-05-05T02:21:39.150Z,100.00
2023-05-05T02:24:05.937Z,100.00
2023-05-05T02:26:36.003Z,100.00
2023-05-05T02:29:20.076Z,100.00
2023-05-05T02:31:53.366Z,100.00
2023-05-05T02:34:31.534Z,100.00
2023-05-05T02:37:00.877Z,100.00
2023-05-05T02:39:38.559Z,100.00
2023-05-05T02:42:06.377Z,100.00
2023-05-05T02:44:34.582Z,100.00
2023-05-05T02:47:05.653Z,100.00
2023-05-05T02:49:32.495Z,100.00
2023-05-05T02:51:59.192Z,100.00
2023-05-05T02:54:28.226Z,100.00
2023-05-05T02:56:57.751Z,100.00
2023-05-05T02:59:48.830Z,100.00
2023-05-05T03:02:21.944Z,100.00
2023-05-05T03:05:21.280Z,100.00
2023-05-05T03:08:01.901Z,100.00
2023-05-05T03:10:38.184Z,100.00
2023-05-05T03:13:09.359Z,100.00
2023-05-05T03:15:44.900Z,100.00
2023-05-05T03:18:12.579Z,100.00
2023-05-05T03:20:42.267Z,100.00
2023-05-05T03:23:09.106Z,100.00
2023-05-05T03:25:46.436Z,100.00
2023-05-05T03:28:16.397Z,100.00
2023-05-05T03:30:44.626Z,100.00
2023-05-05T03:33:12.031Z,100.00
2023-05-05T03:35:38.671Z,100.00
2023-05-05T03:38:05.155Z,100.00
2023-05-05T03:40:43.053Z,100.00
2023-05-05T03:43:17.119Z,100.00
2023-05-05T03:45:43.747Z,100.00
2023-05-05T03:48:10.248Z,100.00
2023-05-05T03:50:36.950Z,100.00
2023-05-05T03:53:03.502Z,100.00
2023-05-05T03:55:29.983Z,100.00
2023-05-05T03:58:01.041Z,100.00
2023-05-05T04:00:27.688Z,100.00
2023-05-05T04:02:54.336Z,100.00
2023-05-05T04:05:24.434Z,100.00
2023-05-05T04:07:54.371Z,100.00
2023-05-05T04:10:21.613Z,100.00
2023-05-05T04:12:48.080Z,100.00
2023-05-05T04:15:14.797Z,100.00
2023-05-05T04:17:41.340Z,100.00
2023-05-05T04:20:17.302Z,100.00
2023-05-05T04:22:46.196Z,100.00
2023-05-05T04:25:12.696Z,100.00
2023-05-05T04:27:41.484Z,100.00
2023-05-05T04:30:09.417Z,100.00
2023-05-05T04:32:36.518Z,100.00
2023-05-05T04:35:05.490Z,100.00
2023-05-05T04:37:32.085Z,100.00
2023-05-05T04:39:58.606Z,100.00
2023-05-05T04:42:27.696Z,100.00
2023-05-05T04:44:56.385Z,100.00
2023-05-05T04:47:22.918Z,100.00
2023-05-05T04:49:54.035Z,100.00
2023-05-05T04:52:20.592Z,100.00
2023-05-05T04:54:47.138Z,100.00
2023-05-05T04:57:13.800Z,100.00
2023-05-05T04:59:40.417Z,100.00
2023-05-05T05:02:07.016Z,100.00
2023-05-05T05:04:33.953Z,100.00
2023-05-05T05:07:01.575Z,100.00
2023-05-05T05:09:28.087Z,100.00
2023-05-05T05:11:54.756Z,100.00
2023-05-05T05:14:21.399Z,100.00
2023-05-05T05:16:52.792Z,100.00
2023-05-05T05:19:19.544Z,100.00
2023-05-05T05:21:47.786Z,100.00
2023-05-05T05:24:14.236Z,100.00
2023-05-05T05:26:40.870Z,100.00
2023-05-05T05:29:07.354Z,100.00
2023-05-05T05:31:34.574Z,100.00
2023-05-05T05:34:07.707Z,100.00
2023-05-05T05:36:34.164Z,100.00
2023-05-05T05:39:00.613Z,100.00
2023-05-05T05:41:27.197Z,100.00
2023-05-05T05:43:53.704Z,100.00
2023-05-05T05:46:21.214Z,99.98
2023-05-05T05:48:53.283Z,99.21
2023-05-05T05:51:19.801Z,98.66
2023-05-05T05:53:46.358Z,96.66
2023-05-05T05:56:14.683Z,94.15
2023-05-05T05:58:45.261Z,93.87
2023-05-05T06:01:12.013Z,93.37
2023-05-05T06:03:38.723Z,92.33
2023-05-05T06:06:05.349Z,92.72
2023-05-05T06:08:32.288Z,91.45
2023-05-05T06:11:00.696Z,91.08
2023-05-05T06:13:27.187Z,90.72
2023-05-05T06:15:53.661Z,88.96
2023-05-05T06:18:22.408Z,89.59
2023-05-05T06:20:54.501Z,89.99
2023-05-05T06:23:20.980Z,90.63
2023-05-05T06:25:51.485Z,90.90
2023-05-05T06:28:18.699Z,89.52
2023-05-05T06:30:45.165Z,89.82
2023-05-05T06:33:18.155Z,90.02
2023-05-05T06:35:44.671Z,89.59
2023-05-05T06:38:13.142Z,89.53
2023-05-05T06:40:41.384Z,89.36
2023-05-05T06:43:07.890Z,90.09
2023-05-05T06:45:34.770Z,90.15
2023-05-05T06:48:01.285Z,91.52
2023-05-05T06:50:27.822Z,92.04
2023-05-05T06:52:54.390Z,91.24
2023-05-05T06:55:29.936Z,90.39
2023-05-05T06:57:56.487Z,90.14
2023-05-05T07:00:23.410Z,89.57
2023-05-05T07:02:50.220Z,88.34
2023-05-05T07:05:16.747Z,86.23
2023-05-05T07:08:00.816Z,85.57
2023-05-05T07:10:27.959Z,84.50
2023-05-05T07:12:55.063Z,83.12
2023-05-05T07:15:29.092Z,82.13
2023-05-05T07:17:56.649Z,80.90
2023-05-05T07:20:23.451Z,80.33
2023-05-05T07:23:00.575Z,79.05
2023-05-05T07:25:29.953Z,77.15
2023-05-05T07:27:56.582Z,75.43
2023-05-05T07:30:30.174Z,73.96
2023-05-05T07:32:59.679Z,73.23
2023-05-05T07:35:26.417Z,72.64
2023-05-05T07:37:53.193Z,71.91
2023-05-05T07:40:19.765Z,71.40
2023-05-05T07:42:47.534Z,69.48
2023-05-05T07:45:15.755Z,68.98
2023-05-05T07:47:42.502Z,67.34
2023-05-05T07:50:09.474Z,67.08
2023-05-05T07:52:46.828Z,65.09
2023-05-05T07:55:18.154Z,63.83
2023-05-05T07:57:47.682Z,63.94
2023-05-05T08:00:14.619Z,62.97
2023-05-05T08:02:41.586Z,63.92
2023-05-05T08:05:10.691Z,65.14
2023-05-05T08:07:41.095Z,63.91
2023-05-05T08:10:14.798Z,63.83
2023-05-05T08:12:41.354Z,65.52
2023-05-05T08:15:08.675Z,65.81
2023-05-05T08:17:47.170Z,64.59
2023-05-05T08:20:13.974Z,66.35
2023-05-05T08:22:43.049Z,65.74
2023-05-05T08:25:14.824Z,65.77
2023-05-05T08:27:42.891Z,65.44
2023-05-05T08:30:10.335Z,65.34
2023-05-05T08:32:38.500Z,65.52
2023-05-05T08:35:06.699Z,65.58
2023-05-05T08:37:33.636Z,64.81
2023-05-05T08:40:00.515Z,64.30
2023-05-05T08:42:36.973Z,63.69
2023-05-05T08:45:05.969Z,62.31
2023-05-05T08:47:33.271Z,61.33
2023-05-05T08:50:00.211Z,60.09
2023-05-05T08:52:33.593Z,59.94
2023-05-05T08:55:28.399Z,57.89
2023-05-05T08:57:59.481Z,59.33
2023-05-05T09:00:27.378Z,58.87
2023-05-05T09:02:57.170Z,58.73
2023-05-05T09:05:28.915Z,58.62
2023-05-05T09:07:55.680Z,57.79
2023-05-05T09:10:22.230Z,56.24
2023-05-05T09:12:53.319Z,56.13
2023-05-05T09:15:19.807Z,55.51
2023-05-05T09:17:48.725Z,55.18
2023-05-05T09:20:17.295Z,54.15
2023-05-05T09:22:46.186Z,53.27
2023-05-05T09:25:17.962Z,51.48
2023-05-05T09:27:47.442Z,52.73
2023-05-05T09:30:23.616Z,50.38
2023-05-05T09:32:52.363Z,52.04
2023-05-05T09:35:20.080Z,51.57
2023-05-05T09:37:47.035Z,51.35
2023-05-05T09:40:17.647Z,51.39
2023-05-05T09:42:44.930Z,50.96
2023-05-05T09:45:17.339Z,48.71
2023-05-05T09:47:46.027Z,49.99
2023-05-05T09:50:18.685Z,50.90
2023-05-05T09:53:01.460Z,48.65
2023-05-05T09:55:28.773Z,49.38
2023-05-05T09:57:58.650Z,49.50
2023-05-05T10:00:39.108Z,46.80
2023-05-05T10:03:05.861Z,49.08
2023-05-05T10:05:32.434Z,47.50
2023-05-05T10:08:13.419Z,46.05
2023-05-05T10:11:07.013Z,45.56
2023-05-05T10:13:42.339Z,46.53
2023-05-05T10:16:09.790Z,46.78
2023-05-05T10:18:38.758Z,47.42
2023-05-05T10:21:06.288Z,44.95
2023-05-05T10:24:08.080Z,43.10
2023-05-05T10:26:40.623Z,47.94
2023-05-05T10:29:21.544Z,45.89
2023-05-05T10:31:59.090Z,45.84
2023-05-05T10:34:42.563Z,43.80
2023-05-05T10:37:09.224Z,46.29
2023-05-05T10:39:36.240Z,47.42
2023-05-05T10:42:13.510Z,45.62
2023-05-05T10:44:41.362Z,46.30
2023-05-05T10:47:08.198Z,46.46
2023-05-05T10:49:55.256Z,42.70
2023-05-05T10:52:32.208Z,46.12
2023-05-05T10:55:11.492Z,44.46
2023-05-05T10:57:41.244Z,45.72
2023-05-05T11:00:09.130Z,45.71
2023-05-05T11:02:36.762Z,45.44
2023-05-05T11:05:06.971Z,45.62
2023-05-05T11:07:34.659Z,45.60
2023-05-05T11:10:04.679Z,45.12
2023-05-05T11:12:32.691Z,45.58
2023-05-05T11:15:28.217Z,44.26
2023-05-05T11:17:56.480Z,45.71
2023-05-05T11:20:37.150Z,45.11
2023-05-05T11:23:04.020Z,46.11
2023-05-05T11:25:37.237Z,45.32
2023-05-05T11:28:13.309Z,45.73
2023-05-05T11:30:54.888Z,44.14
2023-05-05T11:33:32.758Z,45.07
2023-05-05T11:36:04.200Z,45.89
2023-05-05T11:39:13.768Z,43.47
2023-05-05T11:42:10.786Z,43.55
2023-05-05T11:44:37.929Z,45.68
2023-05-05T11:47:04.446Z,45.83
2023-05-05T11:49:35.112Z,45.23
2023-05-05T11:52:06.657Z,45.40
2023-05-05T11:54:35.424Z,45.08
2023-05-05T11:57:05.259Z,44.93
2023-05-05T11:59:38.800Z,44.86
2023-05-05T12:02:05.594Z,44.98
2023-05-05T12:04:32.501Z,45.08
2023-05-05T12:07:01.872Z,45.55
2023-05-05T12:09:28.749Z,44.98
2023-05-05T12:11:58.757Z,45.06
2023-05-05T12:14:25.995Z,45.40
2023-05-05T12:17:07.863Z,45.02
2023-05-05T12:19:39.881Z,46.48
2023-05-05T12:22:06.388Z,46.15
2023-05-05T12:24:33.015Z,45.77
2023-05-05T12:27:11.423Z,44.40
2023-05-05T12:29:38.230Z,45.44
2023-05-05T12:32:05.187Z,45.56
2023-05-05T12:34:32.500Z,45.32
2023-05-05T12:36:59.263Z,45.15
2023-05-05T12:39:38.319Z,43.76
2023-05-05T12:42:06.300Z,45.16
2023-05-05T12:44:38.482Z,45.05
2023-05-05T12:47:05.674Z,45.57
2023-05-05T12:49:34.951Z,45.32
2023-05-05T12:52:01.621Z,45.23
2023-05-05T12:54:29.820Z,45.23
2023-05-05T12:56:59.698Z,45.01
2023-05-05T12:59:27.524Z,45.45
2023-05-05T13:02:08.914Z,45.23
2023-05-05T13:04:48.370Z,42.61
2023-05-05T13:07:18.509Z,45.35
2023-05-05T13:09:46.049Z,46.48
2023-05-05T13:12:12.746Z,46.22
2023-05-05T13:14:46.301Z,46.23
2023-05-05T13:17:13.806Z,45.50
2023-05-05T13:19:46.203Z,47.06
2023-05-05T13:22:17.815Z,46.99
2023-05-05T13:24:51.641Z,47.14
2023-05-05T13:27:19.718Z,47.31
2023-05-05T13:29:46.774Z,47.03
2023-05-05T13:32:13.265Z,47.41
2023-05-05T13:34:39.809Z,47.21
2023-05-05T13:37:06.629Z,47.17
2023-05-05T13:39:33.278Z,47.35
2023-05-05T13:42:08.606Z,47.86
2023-05-05T13:44:40.565Z,48.99
2023-05-05T13:47:09.084Z,49.28
2023-05-05T13:49:36.106Z,49.58
2023-05-05T13:52:04.983Z,49.98
2023-05-05T13:54:31.667Z,50.21
2023-05-05T13:56:58.304Z,51.24
2023-05-05T13:59:25.861Z,51.52
2023-05-05T14:01:52.371Z,52.02
2023-05-05T14:04:25.580Z,52.93
2023-05-05T14:06:53.543Z,55.60
2023-05-05T14:09:20.134Z,60.86
2023-05-05T14:11:48.333Z,65.53
2023-05-05T14:14:14.872Z,71.13
2023-05-05T14:16:43.258Z,73.25
2023-05-05T14:19:10.096Z,75.63
2023-05-05T14:21:36.538Z,79.30
2023-05-05T14:24:03.071Z,81.75
2023-05-05T14:26:29.750Z,86.61
2023-05-05T14:28:58.103Z,86.96
2023-05-05T14:31:24.650Z,90.20
2023-05-05T14:33:51.426Z,89.92
2023-05-05T14:36:17.938Z,92.69
2023-05-05T14:38:44.551Z,92.68
2023-05-05T14:41:23.046Z,95.21
2023-05-05T14:43:52.267Z,98.01
2023-05-05T14:46:19.020Z,100.00
2023-05-05T14:48:47.404Z,100.00
2023-05-05T14:51:15.926Z,100.00
2023-05-05T14:53:42.720Z,100.00
2023-05-05T14:56:09.478Z,100.00
2023-05-05T14:58:36.002Z,100.00
2023-05-05T15:01:02.492Z,100.00
2023-05-05T15:03:30.902Z,100.00
2023-05-05T15:05:57.862Z,100.00
2023-05-05T15:08:24.468Z,100.00
2023-05-05T15:10:52.728Z,100.00
2023-05-05T15:13:19.452Z,100.00
2023-05-05T15:15:46.149Z,100.00
2023-05-05T15:18:17.104Z,100.00
2023-05-05T15:20:43.629Z,100.00
2023-05-05T15:23:10.182Z,100.00
2023-05-05T15:25:36.788Z,100.00
2023-05-05T15:28:03.378Z,100.00
2023-05-05T15:30:32.121Z,100.00
2023-05-05T15:32:58.825Z,100.00
2023-05-05T15:35:25.676Z,100.00
2023-05-05T15:37:53.408Z,100.00
2023-05-05T15:40:21.719Z,100.00
2023-05-05T15:42:52.183Z,100.00
2023-05-05T15:45:18.774Z,100.00
2023-05-05T15:47:46.433Z,100.00
2023-05-05T15:50:13.003Z,100.00
2023-05-05T15:52:39.670Z,100.00
2023-05-05T15:55:11.241Z,100.00
2023-05-05T15:57:39.830Z,100.00
2023-05-05T16:00:08.351Z,100.00
2023-05-05T16:02:41.518Z,100.00
2023-05-05T16:05:09.215Z,100.00
2023-05-05T16:07:35.887Z,100.00
2023-05-05T16:10:07.176Z,100.00
2023-05-05T16:12:34.339Z,100.00
2023-05-05T16:15:01.216Z,100.00
2023-05-05T16:17:27.850Z,100.00
2023-05-05T16:19:54.328Z,100.00
2023-05-05T16:22:21.050Z,100.00
2023-05-05T16:24:49.460Z,100.00
2023-05-05T16:27:16.507Z,100.00
2023-05-05T16:29:42.996Z,100.00
2023-05-05T16:32:09.683Z,100.00
2023-05-05T16:34:36.206Z,100.00
2023-05-05T16:37:02.672Z,100.00
2023-05-05T16:39:33.692Z,100.00
2023-05-05T16:42:00.183Z,100.00
2023-05-05T16:44:26.717Z,100.00
2023-05-05T16:46:55.357Z,100.00
2023-05-05T16:49:24.121Z,100.00
2023-05-05T16:51:54.507Z,100.00
2023-05-05T16:54:21.195Z,100.00
2023-05-05T16:56:47.682Z,100.00
2023-05-05T16:59:16.455Z,100.00
2023-05-05T17:01:43.659Z,100.00
2023-05-05T17:04:11.009Z,100.00
2023-05-05T17:06:37.537Z,100.00
2023-05-05T17:09:06.446Z,100.00
2023-05-05T17:11:32.888Z,100.00
2023-05-05T17:13:59.393Z,100.00
2023-05-05T17:16:36.529Z,100.00
2023-05-05T17:19:03.519Z,100.00
2023-05-05T17:21:30.063Z,100.00
2023-05-05T17:23:58.418Z,100.00
2023-05-05T17:26:25.304Z,100.00
2023-05-05T17:28:52.031Z,100.00
2023-05-05T17:31:18.683Z,100.00
2023-05-05T17:33:45.136Z,100.00
2023-05-05T17:36:11.712Z,100.00
2023-05-05T17:38:40.376Z,100.00
2023-05-05T17:41:08.617Z,100.00
2023-05-05T17:43:35.099Z,100.00
2023-05-05T17:46:03.357Z,100.00
2023-05-05T17:48:29.914Z,100.00
2023-05-05T17:50:56.636Z,100.00
2023-05-05T17:53:29.787Z,100.00
2023-05-05T17:55:56.314Z,100.00
2023-05-05T17:58:22.878Z,100.00
2023-05-05T18:00:51.343Z,100.00
2023-05-05T18:03:17.940Z,100.00
2023-05-05T18:05:44.563Z,100.00
2023-05-05T18:08:13.427Z,100.00
2023-05-05T18:10:39.896Z,100.00
2023-05-05T18:13:06.606Z,100.00
2023-05-05T18:15:33.393Z,100.00
2023-05-05T18:18:01.135Z,100.00
2023-05-05T18:20:27.650Z,100.00
2023-05-05T18:22:54.290Z,100.00
2023-05-05T18:25:20.888Z,100.00
2023-05-05T18:27:47.470Z,100.00
2023-05-05T18:30:26.345Z,100.00
2023-05-05T18:32:53.414Z,100.00
2023-05-05T18:35:19.900Z,100.00
2023-05-05T18:37:46.646Z,100.00
2023-05-05T18:40:13.477Z,100.00
2023-05-05T18:42:40.010Z,100.00
2023-05-05T18:45:09.587Z,100.00
2023-05-05T18:47:38.196Z,100.00
2023-05-05T18:50:05.788Z,100.00
2023-05-05T18:52:33.552Z,100.00
2023-05-05T18:55:02.274Z,100.00
2023-05-05T18:57:28.936Z,100.00
2023-05-05T18:59:57.194Z,100.00
2023-05-05T19:02:23.729Z,100.00
2023-05-05T19:04:50.265Z,100.00
2023-05-05T19:10:09.093Z,100.00
2023-05-05T19:12:42.173Z,100.00
2023-05-05T19:15:09.153Z,100.00
2023-05-05T19:17:38.963Z,100.00
2023-05-05T19:20:06.154Z,100.00
2023-05-05T19:22:32.656Z,100.00
2023-05-05T19:24:59.134Z,100.00
2023-05-05T19:27:31.838Z,100.00
2023-05-05T19:29:58.304Z,100.00
2023-05-05T19:32:28.517Z,100.00
2023-05-05T19:34:56.851Z,100.00
2023-05-05T19:37:23.517Z,100.00
2023-05-05T19:39:51.123Z,100.00
2023-05-05T19:42:18.326Z,100.00
2023-05-05T19:44:45.126Z,100.00
2023-05-05T19:47:11.779Z,100.00
2023-05-05T19:49:38.331Z,100.00
2023-05-05T19:52:05.058Z,100.00
2023-05-05T19:54:31.624Z,100.00
2023-05-05T19:57:00.358Z,100.00
2023-05-05T19:59:26.913Z,100.00
2023-05-05T20:01:53.432Z,100.00
2023-05-05T20:04:22.272Z,100.00
2023-05-05T20:06:48.940Z,100.00
2023-05-05T20:09:15.476Z,100.00
2023-05-05T20:11:42.135Z,100.00
2023-05-05T20:14:08.793Z,100.00
2023-05-05T20:16:35.431Z,100.00
2023-05-05T20:19:02.332Z,100.00
2023-05-05T20:21:29.116Z,100.00
2023-05-05T20:23:55.659Z,100.00
2023-05-05T20:26:26.678Z,100.00
2023-05-05T20:28:53.188Z,100.00
2023-05-05T20:31:21.828Z,100.00
2023-05-05T20:33:50.145Z,100.00
2023-05-05T20:36:17.640Z,100.00
2023-05-05T20:38:44.218Z,100.00
2023-05-05T20:41:17.811Z,100.00
2023-05-05T20:43:44.351Z,100.00
2023-05-05T20:46:13.834Z,100.00
2023-05-05T20:48:46.789Z,100.00
2023-05-05T20:51:13.397Z,100.00
2023-05-05T20:53:39.945Z,100.00
2023-05-05T20:56:09.407Z,100.00
2023-05-05T20:58:36.177Z,100.00
2023-05-05T21:01:02.748Z,100.00
2023-05-05T21:03:29.500Z,100.00
2023-05-05T21:05:56.108Z,100.00
2023-05-05T21:08:22.661Z,100.00
2023-05-05T21:10:55.786Z,100.00
2023-05-05T21:13:23.004Z,100.00
2023-05-05T21:15:49.642Z,100.00
2023-05-05T21:18:18.338Z,100.00
2023-05-05T21:20:44.841Z,100.00
2023-05-05T21:23:11.866Z,100.00
2023-05-05T21:25:40.259Z,100.00
2023-05-05T21:28:06.738Z,100.00
2023-05-05T21:30:35.148Z,100.00
2023-05-05T21:33:03.730Z,100.00
2023-05-05T21:35:30.314Z,100.00
2023-05-05T21:37:56.947Z,100.00
2023-05-05T21:40:23.597Z,100.00
2023-05-05T21:42:53.678Z,100.00
2023-05-05T21:45:20.383Z,100.00
2023-05-05T21:47:48.905Z,100.00
2023-05-05T21:50:15.472Z,100.00
2023-05-05T21:52:42.202Z,100.00
2023-05-05T21:55:11.114Z,100.00
2023-05-05T21:57:37.609Z,100.00
2023-05-05T22:00:06.057Z,100.00
2023-05-05T22:02:35.396Z,100.00
2023-05-05T22:05:04.027Z,100.00
2023-05-05T22:07:32.324Z,100.00
2023-05-05T22:09:59.652Z,100.00
2023-05-05T22:12:26.130Z,100.00
2023-05-05T22:14:52.662Z,100.00
2023-05-05T22:17:25.698Z,100.00
2023-05-05T22:19:52.911Z,100.00
2023-05-05T22:22:19.632Z,100.00
2023-05-05T22:24:46.291Z,100.00
2023-05-05T22:27:12.811Z,100.00
2023-05-05T22:29:39.343Z,100.00
2023-05-05T22:32:07.736Z,100.00
2023-05-05T22:34:36.602Z,100.00
2023-05-05T22:37:03.215Z,100.00
2023-05-05T22:39:31.493Z,100.00
2023-05-05T22:42:01.048Z,100.00
2023-05-05T22:44:27.616Z,100.00
2023-05-05T22:46:54.408Z,100.00
2023-05-05T22:49:21.207Z,100.00
2023-05-05T22:51:48.144Z,100.00
2023-05-05T22:54:16.450Z,100.00
2023-05-05T22:56:43.492Z,100.00
2023-05-05T22:59:10.005Z,100.00
2023-05-05T23:01:37.368Z,100.00
2023-05-05T23:04:04.233Z,100.00
2023-05-05T23:06:30.696Z,100.00
2023-05-05T23:08:59.375Z,100.00
2023-05-05T23:11:26.582Z,100.00
2023-05-05T23:13:53.485Z,100.00
2023-05-05T23:16:20.217Z,100.00
2023-05-05T23:18:46.764Z,100.00
2023-05-05T23:21:13.285Z,100.00
2023-05-05T23:23:39.952Z,100.00
2023-05-05T23:26:06.515Z,100.00
2023-05-05T23:28:33.226Z,100.00
2023-05-05T23:30:59.971Z,100.00
2023-05-05T23:33:26.812Z,100.00
2023-05-05T23:35:54.223Z,100.00
2023-05-05T23:38:28.834Z,100.00
2023-05-05T23:40:55.317Z,100.00
2023-05-05T23:43:21.911Z,100.00
2023-05-05T23:45:48.591Z,100.00
2023-05-05T23:48:15.085Z,100.00
2023-05-05T23:50:44.011Z,100.00
2023-05-05T23:53:12.841Z,100.00
2023-05-05T23:55:39.348Z,100.00
2023-05-05T23:58:05.894Z,100.00
